Terminal Aerodrome Forecast
Issued by NWS Cleveland, OH

Home | Current Version | Previous Version | Text Only | Print | Product List | Glossary Off
Versions: 1 2 3 4 5 6 7 8 9 10 11 12 13 14 15 16 17 18 19 20

346
FTUS41 KCLE 301923 AAA
TAFMFD
TAF AMD
KMFD 301923Z 3019/0118 22012KT P6SM SCT010
     FM302100 25010KT P6SM VCSH SCT020 OVC030
     FM010300 26010G18KT P6SM SCT020 BKN035
     FM010600 25015KT P6SM BKN020
     FM010800 25015KT P6SM OVC015=

USA.gov is the U.S. government's official web portal to all federal, state and local government web resources and services.